createdAt,value
2018-09-10T00:00:50.485Z,97522
2018-09-10T00:02:06.390Z,97524
2018-09-10T00:03:22.385Z,97528
2018-09-10T00:04:38.358Z,97525
2018-09-10T00:05:54.275Z,97529
2018-09-10T00:07:10.314Z,97531
2018-09-10T00:08:26.282Z,97530
2018-09-10T00:09:42.247Z,97533
2018-09-10T00:10:58.183Z,97532
2018-09-10T00:12:14.168Z,97531
2018-09-10T00:13:30.185Z,97535
2018-09-10T00:14:46.267Z,97532
2018-09-10T00:16:02.223Z,97532
2018-09-10T00:17:18.261Z,97538
2018-09-10T00:18:52.256Z,97534
2018-09-10T00:20:08.372Z,97537
2018-09-10T00:21:24.316Z,97538
2018-09-10T00:22:40.221Z,97538
2018-09-10T00:23:56.265Z,97538
2018-09-10T00:25:12.402Z,97536
2018-09-10T00:26:28.498Z,97533
2018-09-10T00:28:02.501Z,97529
2018-09-10T00:29:18.436Z,97530
2018-09-10T00:30:34.406Z,97530
2018-09-10T00:31:50.334Z,97531
2018-09-10T00:33:24.304Z,97534
2018-09-10T00:34:40.290Z,97540
2018-09-10T00:35:56.236Z,97540
2018-09-10T00:37:12.144Z,97538
2018-09-10T00:38:28.069Z,97535
2018-09-10T00:39:44.062Z,97534
2018-09-10T00:41:00.185Z,97538
2018-09-10T00:42:16.178Z,97542
2018-09-10T00:43:50.022Z,97540
2018-09-10T00:45:05.950Z,97539
2018-09-10T00:47:56.029Z,97545
2018-09-10T00:49:12.033Z,97542
2018-09-10T00:50:45.984Z,97546
2018-09-10T00:52:19.862Z,97545
2018-09-10T00:53:35.916Z,97550
2018-09-10T00:56:25.778Z,97550
2018-09-10T00:57:41.713Z,97551
2018-09-10T00:58:57.652Z,97549
2018-09-10T01:00:13.659Z,97550
2018-09-10T01:01:29.710Z,97550
2018-09-10T01:02:45.619Z,97547
2018-09-10T01:04:01.573Z,97547
2018-09-10T01:05:17.681Z,97546
2018-09-10T01:06:33.715Z,97543
2018-09-10T01:07:49.731Z,97543
2018-09-10T01:09:05.756Z,97542
2018-09-10T01:11:55.712Z,97543
2018-09-10T01:13:11.858Z,97539
2018-09-10T01:14:27.897Z,97538
2018-09-10T01:15:43.835Z,97540
2018-09-10T01:16:59.773Z,97537
2018-09-10T01:18:15.801Z,97538
2018-09-10T01:19:31.838Z,97536
2018-09-10T01:20:47.964Z,97538
2018-09-10T01:22:04.002Z,97536
2018-09-10T01:23:37.826Z,97534
2018-09-10T01:24:53.786Z,97537
2018-09-10T01:26:10.862Z,97539
2018-09-10T01:27:26.856Z,97537
2018-09-10T01:28:42.777Z,97536
2018-09-10T01:29:58.767Z,97538
2018-09-10T01:31:14.684Z,97536
2018-09-10T01:32:48.683Z,97538
2018-09-10T01:34:04.767Z,97536
2018-09-10T01:35:20.748Z,97541
2018-09-10T01:36:36.775Z,97540
2018-09-10T01:37:52.720Z,97543
2018-09-10T01:39:08.812Z,97542
2018-09-10T01:40:24.762Z,97545
2018-09-10T01:41:40.702Z,97540
2018-09-10T01:42:56.729Z,97542
2018-09-10T01:44:12.736Z,97543
2018-09-10T01:45:28.634Z,97541
2018-09-10T01:46:44.572Z,97545
2018-09-10T01:48:00.624Z,97541
2018-09-10T01:49:16.698Z,97543
2018-09-10T01:50:32.605Z,97548
2018-09-10T01:51:48.512Z,97542
2018-09-10T01:53:04.648Z,97548
2018-09-10T01:54:20.651Z,97548
2018-09-10T01:55:36.799Z,97549
2018-09-10T01:56:52.930Z,97552
2018-09-10T01:58:08.906Z,97552
2018-09-10T01:59:24.888Z,97543
2018-09-10T02:00:40.942Z,97548
2018-09-10T02:01:56.883Z,97547
2018-09-10T02:03:30.912Z,97542
2018-09-10T02:04:46.833Z,97540
2018-09-10T02:06:02.793Z,97542
2018-09-10T02:07:18.718Z,97542
2018-09-10T02:08:34.730Z,97543
2018-09-10T02:09:50.769Z,97544
2018-09-10T02:11:06.679Z,97551
2018-09-10T02:12:22.770Z,97548
2018-09-10T02:13:38.785Z,97546
2018-09-10T02:14:54.713Z,97544
2018-09-10T02:16:10.627Z,97550
2018-09-10T02:17:26.521Z,97541
2018-09-10T02:18:42.544Z,97544
2018-09-10T02:19:58.468Z,97540
2018-09-10T02:21:14.560Z,97534
2018-09-10T02:22:30.513Z,97538
2018-09-10T02:23:46.594Z,97536
2018-09-10T02:25:02.504Z,97531
2018-09-10T02:26:18.449Z,97532
2018-09-10T02:27:34.422Z,97535
2018-09-10T02:28:50.322Z,97531
2018-09-10T02:30:24.256Z,97529
2018-09-10T02:31:39.149Z,97530
2018-09-10T02:33:13.036Z,97531
2018-09-10T02:34:29.109Z,97526
2018-09-10T02:36:02.979Z,97525
2018-09-10T02:37:18.982Z,97524
2018-09-10T02:38:35.023Z,97523
2018-09-10T02:39:50.942Z,97520
2018-09-10T02:41:06.951Z,97523
2018-09-10T02:42:22.957Z,97523
2018-09-10T02:43:38.968Z,97521
2018-09-10T02:45:12.842Z,97525
2018-09-10T02:46:28.746Z,97525
2018-09-10T02:47:44.648Z,97523
2018-09-10T02:49:00.549Z,97526
2018-09-10T02:50:35.411Z,97524
2018-09-10T02:51:51.312Z,97524
2018-09-10T02:53:07.265Z,97528
2018-09-10T02:54:23.337Z,97535
2018-09-10T02:55:39.378Z,97534
2018-09-10T02:56:55.298Z,97528
2018-09-10T02:58:11.281Z,97532
2018-09-10T02:59:27.284Z,97536
2018-09-10T03:00:43.268Z,97537
2018-09-10T03:01:59.167Z,97537
2018-09-10T03:03:33.004Z,97542
2018-09-10T03:04:49.012Z,97535
2018-09-10T03:06:04.971Z,97536
2018-09-10T03:08:54.737Z,97537
2018-09-10T03:10:10.648Z,97538
2018-09-10T03:11:26.584Z,97535
2018-09-10T03:12:42.509Z,97533
2018-09-10T03:13:58.454Z,97533
2018-09-10T03:15:14.525Z,97534
2018-09-10T03:16:30.556Z,97534
2018-09-10T03:17:46.546Z,97536
2018-09-10T03:19:02.548Z,97532
2018-09-10T03:20:18.566Z,97535
2018-09-10T03:21:34.485Z,97536
2018-09-10T03:22:50.411Z,97539
2018-09-10T03:24:06.450Z,97542
2018-09-10T03:25:40.295Z,97535
2018-09-10T03:26:56.383Z,97538
2018-09-10T03:28:12.269Z,97538
2018-09-10T03:29:46.173Z,97543
2018-09-10T03:31:02.066Z,97538
2018-09-10T03:32:18.162Z,97536
2018-09-10T03:33:35.172Z,97537
2018-09-10T03:34:51.070Z,97539
2018-09-10T03:37:40.882Z,97537
2018-09-10T03:38:57.007Z,97539
2018-09-10T03:40:13.029Z,97542
2018-09-10T03:41:29.036Z,97543
2018-09-10T03:42:45.014Z,97540
2018-09-10T03:44:00.953Z,97542
2018-09-10T03:45:16.918Z,97542
2018-09-10T03:46:50.875Z,97547
2018-09-10T03:48:06.804Z,97544
2018-09-10T03:49:22.712Z,97543
2018-09-10T03:50:38.658Z,97546
2018-09-10T03:51:54.592Z,97549
2018-09-10T03:53:28.607Z,97552
2018-09-10T03:54:44.651Z,97558
2018-09-10T03:56:00.592Z,97557
2018-09-10T03:57:16.650Z,97565
2018-09-10T03:58:32.611Z,97565
2018-09-10T03:59:48.522Z,97571
2018-09-10T04:01:04.465Z,97573
2018-09-10T04:02:20.510Z,97577
2018-09-10T04:03:36.510Z,97576
2018-09-10T04:06:26.277Z,97577
2018-09-10T04:08:01.193Z,97580
2018-09-10T04:09:17.097Z,97582
2018-09-10T04:10:33.152Z,97584
2018-09-10T04:11:49.176Z,97577
2018-09-10T04:13:05.123Z,97582
2018-09-10T04:14:21.049Z,97580
2018-09-10T04:15:37.118Z,97583
2018-09-10T04:17:11.015Z,97582
2018-09-10T04:18:26.985Z,97590
2018-09-10T04:19:42.899Z,97593
2018-09-10T04:20:59.119Z,97596
2018-09-10T04:22:15.236Z,97594
2018-09-10T04:23:31.204Z,97596
2018-09-10T04:24:47.154Z,97597
2018-09-10T04:26:03.181Z,97598
2018-09-10T04:27:19.066Z,97596
2018-09-10T04:28:35.145Z,97600
2018-09-10T04:30:08.989Z,97608
2018-09-10T04:31:25.045Z,97608
2018-09-10T04:32:41.009Z,97611
2018-09-10T04:33:56.963Z,97611
2018-09-10T04:35:13.034Z,97605
2018-09-10T04:36:29.066Z,97602
2018-09-10T04:37:45.101Z,97604
2018-09-10T04:39:01.145Z,97607
2018-09-10T04:41:57.736Z,97611
2018-09-10T04:43:13.696Z,97613
2018-09-10T05:11:28.483Z,97640
2018-09-10T05:13:02.377Z,97637
2018-09-10T05:14:18.382Z,97637
2018-09-10T05:17:08.426Z,97643
2018-09-10T05:18:24.713Z,97645
2018-09-10T05:19:40.690Z,97644
2018-09-10T05:21:14.707Z,97641
2018-09-10T05:22:30.605Z,97645
2018-09-10T05:24:04.488Z,97649
2018-09-10T05:25:20.588Z,97650
2018-09-10T05:26:36.781Z,97652
2018-09-10T05:28:10.619Z,97658
2018-09-10T05:29:26.662Z,97659
2018-09-10T05:30:42.735Z,97666
2018-09-10T05:31:58.774Z,97660
2018-09-10T05:33:14.687Z,97656
2018-09-10T05:34:30.896Z,97659
2018-09-10T05:35:46.992Z,97661
2018-09-10T05:37:03.009Z,97661
2018-09-10T05:38:18.913Z,97664
2018-09-10T05:39:34.899Z,97664
2018-09-10T05:40:51.023Z,97664
2018-09-10T05:42:07.136Z,97667
2018-09-10T05:43:42.109Z,97665
2018-09-10T05:44:58.091Z,97670
2018-09-10T05:46:14.037Z,97669
2018-09-10T05:47:30.071Z,97671
2018-09-10T05:48:45.972Z,97677
2018-09-10T05:50:02.048Z,97676
2018-09-10T05:51:17.966Z,97678
2018-09-10T05:52:51.832Z,97677
2018-09-10T06:00:44.884Z,97683
2018-09-10T06:02:01.994Z,97681
2018-09-10T06:03:18.067Z,97682
2018-09-10T06:04:34.108Z,97684
2018-09-10T06:05:50.012Z,97681
2018-09-10T06:07:06.078Z,97683
2018-09-10T06:08:41.040Z,97684
2018-09-10T06:10:14.922Z,97683
2018-09-10T06:11:30.876Z,97687
2018-09-10T06:12:46.911Z,97689
2018-09-10T06:14:02.861Z,97686
2018-09-10T06:15:18.852Z,97684
2018-09-10T06:16:34.829Z,97682
2018-09-10T06:17:50.981Z,97677
2018-09-10T06:19:06.994Z,97676
2018-09-10T06:20:22.952Z,97677
2018-09-10T06:21:40.009Z,97670
2018-09-10T06:22:56.052Z,97666
2018-09-10T06:24:12.257Z,97669
2018-09-10T06:27:02.176Z,97672
2018-09-10T06:28:18.068Z,97678
2018-09-10T06:29:51.917Z,97681
2018-09-10T06:31:07.905Z,97685
2018-09-10T06:32:24.014Z,97685
2018-09-10T06:33:58.890Z,97677
2018-09-10T06:35:15.036Z,97679
2018-09-10T06:36:31.073Z,97682
2018-09-10T06:37:46.982Z,97680
2018-09-10T06:39:03.157Z,97682
2018-09-10T06:40:19.125Z,97684
2018-09-10T06:41:35.087Z,97682
2018-09-10T06:42:51.006Z,97686
2018-09-10T06:45:58.868Z,97691
2018-09-10T06:47:14.813Z,97690
2018-09-10T06:48:30.938Z,97691
2018-09-10T06:49:47.049Z,97692
2018-09-10T06:51:20.886Z,97698
2018-09-10T06:52:54.910Z,97700
2018-09-10T06:54:11.080Z,97699
2018-09-10T06:55:27.101Z,97700
2018-09-10T06:56:43.161Z,97697
2018-09-10T06:58:17.100Z,97697
2018-09-10T06:59:51.043Z,97698
2018-09-10T07:02:40.983Z,97698
2018-09-10T07:03:57.094Z,97702
2018-09-10T07:06:46.927Z,97706
2018-09-10T07:08:02.939Z,97702
2018-09-10T07:09:19.021Z,97706
2018-09-10T07:10:52.903Z,97705
2018-09-10T07:12:08.924Z,97709
2018-09-10T07:13:24.921Z,97713
2018-09-10T07:14:40.971Z,97717
2018-09-10T07:15:56.929Z,97719
2018-09-10T07:17:30.871Z,97726
2018-09-10T07:18:47.176Z,97728
2018-09-10T07:20:03.194Z,97725
2018-09-10T07:21:20.141Z,97727
2018-09-10T07:22:36.105Z,97727
2018-09-10T07:23:52.023Z,97726
2018-09-10T07:25:08.140Z,97723
2018-09-10T07:26:24.049Z,97726
2018-09-10T07:27:58.850Z,97724
2018-09-10T07:29:14.796Z,97726
2018-09-10T07:30:30.777Z,97727
2018-09-10T07:31:46.800Z,97729
2018-09-10T07:33:02.722Z,97730
2018-09-10T07:34:36.598Z,97733
2018-09-10T07:35:52.726Z,97731
2018-09-10T07:37:08.648Z,97737
2018-09-10T07:38:42.550Z,97730
2018-09-10T07:39:58.541Z,97732
2018-09-10T07:41:14.595Z,97735
2018-09-10T07:42:31.560Z,97731
2018-09-10T07:44:05.385Z,97731
2018-09-10T07:45:21.384Z,97733
2018-09-10T07:46:37.443Z,97727
2018-09-10T07:47:53.619Z,97729
2018-09-10T07:49:09.565Z,97727
2018-09-10T07:50:25.480Z,97732
2018-09-10T07:51:41.548Z,97733
2018-09-10T07:52:57.679Z,97734
2018-09-10T07:54:13.770Z,97733
2018-09-10T07:55:29.754Z,97737
2018-09-10T07:57:03.666Z,97735
2018-09-10T07:58:19.572Z,97736
2018-09-10T07:59:35.615Z,97731
2018-09-10T08:00:51.995Z,97738
2018-09-10T08:02:07.972Z,97736
2018-09-10T08:03:42.973Z,97737
2018-09-10T08:04:58.985Z,97736
2018-09-10T08:06:14.952Z,97741
2018-09-10T08:07:30.908Z,97738
2018-09-10T08:08:47.017Z,97735
2018-09-10T08:10:03.018Z,97735
2018-09-10T08:11:19.024Z,97741
2018-09-10T08:12:34.991Z,97739
2018-09-10T08:13:51.080Z,97743
2018-09-10T08:15:26.038Z,97745
2018-09-10T08:16:42.146Z,97745
2018-09-10T08:17:57.940Z,97748
2018-09-10T08:19:31.757Z,97748
2018-09-10T08:20:47.671Z,97750
2018-09-10T08:22:03.594Z,97748
2018-09-10T08:23:19.656Z,97745
2018-09-10T08:24:35.696Z,97745
2018-09-10T08:25:51.965Z,97750
2018-09-10T08:27:07.840Z,97750
2018-09-10T08:28:23.889Z,97748
2018-09-10T08:29:57.714Z,97744
2018-09-10T08:31:13.775Z,97745
2018-09-10T08:32:29.849Z,97750
2018-09-10T08:33:45.830Z,97757
2018-09-10T08:35:01.844Z,97757
2018-09-10T08:36:35.666Z,97758
2018-09-10T08:38:09.498Z,97756
2018-09-10T08:39:25.532Z,97759
2018-09-10T08:41:00.618Z,97758
2018-09-10T08:42:34.462Z,97760
2018-09-10T08:43:50.402Z,97756
2018-09-10T08:45:06.526Z,97759
2018-09-10T08:46:22.490Z,97757
2018-09-10T08:47:38.558Z,97759
2018-09-10T08:48:54.527Z,97762
2018-09-10T08:50:28.710Z,97756
2018-09-10T08:52:03.806Z,97757
2018-09-10T08:53:37.741Z,97755
2018-09-10T08:54:54.329Z,97756
2018-09-10T08:56:10.227Z,97753
2018-09-10T08:57:25.775Z,97753
2018-09-10T08:59:00.614Z,97752
2018-09-10T09:00:16.640Z,97753
2018-09-10T09:01:32.609Z,97751
2018-09-10T09:02:48.541Z,97755
2018-09-10T09:04:04.486Z,97749
2018-09-10T09:05:20.522Z,97749
2018-09-10T09:06:36.545Z,97746
2018-09-10T09:08:11.544Z,97748
2018-09-10T09:09:27.602Z,97746
2018-09-10T09:10:43.597Z,97747
2018-09-10T09:11:59.614Z,97748
2018-09-10T09:13:33.484Z,97747
2018-09-10T09:14:49.474Z,97746
2018-09-10T09:16:05.517Z,97746
2018-09-10T09:17:21.690Z,97747
2018-09-10T09:18:37.779Z,97745
2018-09-10T09:19:53.803Z,97743
2018-09-10T09:22:43.721Z,97735
2018-09-10T09:23:59.808Z,97734
2018-09-10T09:25:16.049Z,97736
2018-09-10T09:26:31.984Z,97737
2018-09-10T09:27:47.930Z,97742
2018-09-10T09:29:21.920Z,97741
2018-09-10T09:30:37.959Z,97741
2018-09-10T09:31:53.919Z,97740
2018-09-10T09:33:09.906Z,97738
2018-09-10T09:34:25.998Z,97742
2018-09-10T09:35:41.950Z,97741
2018-09-10T09:36:57.919Z,97743
2018-09-10T09:38:13.950Z,97745
2018-09-10T09:39:30.001Z,97740
2018-09-10T09:40:46.062Z,97742
2018-09-10T09:42:02.111Z,97739
2018-09-10T09:43:35.997Z,97743
2018-09-10T09:44:51.943Z,97746
2018-09-10T09:46:25.890Z,97744
2018-09-10T09:47:41.903Z,97745
2018-09-10T09:48:58.082Z,97748
2018-09-10T09:50:13.944Z,97748
2018-09-10T09:51:29.929Z,97749
2018-09-10T09:52:45.899Z,97748
2018-09-10T09:54:01.871Z,97751
2018-09-10T09:55:17.787Z,97750
2018-09-10T09:56:33.766Z,97752
2018-09-10T09:57:49.804Z,97750
2018-09-10T09:59:05.988Z,97746
2018-09-10T10:00:21.994Z,97743
2018-09-10T10:01:37.984Z,97745
2018-09-10T10:02:53.910Z,97736
2018-09-10T10:04:27.840Z,97735
2018-09-10T10:05:43.765Z,97741
2018-09-10T10:07:17.652Z,97742
2018-09-10T10:08:33.630Z,97742
2018-09-10T10:11:23.805Z,97751
2018-09-10T10:12:39.669Z,97750
2018-09-10T10:13:55.616Z,97748
2018-09-10T10:15:11.840Z,97739
2018-09-10T10:16:27.942Z,97740
2018-09-10T10:17:43.833Z,97735
2018-09-10T10:18:59.786Z,97734
2018-09-10T10:20:15.738Z,97730
2018-09-10T10:21:49.749Z,97729
2018-09-10T10:23:05.729Z,97725
2018-09-10T10:24:21.714Z,97722
2018-09-10T10:25:55.710Z,97725
2018-09-10T10:27:11.791Z,97723
2018-09-10T10:28:27.773Z,97722
2018-09-10T10:29:43.771Z,97722
2018-09-10T10:30:59.845Z,97721
2018-09-10T10:32:15.868Z,97724
2018-09-10T10:33:31.869Z,97721
2018-09-10T10:34:47.826Z,97719
2018-09-10T10:36:03.913Z,97719
2018-09-10T10:37:20.027Z,97718
2018-09-10T10:38:36.095Z,97721
2018-09-10T10:40:10.203Z,97717
2018-09-10T10:41:26.234Z,97715
2018-09-10T10:42:42.352Z,97717
2018-09-10T10:44:16.288Z,97720
2018-09-10T10:45:32.324Z,97721
2018-09-10T10:46:48.273Z,97720
2018-09-10T10:48:04.471Z,97724
2018-09-10T10:49:20.376Z,97724
2018-09-10T10:50:36.481Z,97721
2018-09-10T10:51:52.576Z,97722
2018-09-10T10:53:08.793Z,97723
2018-09-10T10:54:24.740Z,97723
2018-09-10T10:55:40.671Z,97721
2018-09-10T10:56:56.816Z,97727
2018-09-10T10:59:46.823Z,97724
2018-09-10T11:01:02.800Z,97720
2018-09-10T11:02:18.857Z,97720
2018-09-10T11:03:34.861Z,97728
2018-09-10T11:04:50.927Z,97725
2018-09-10T11:06:06.929Z,97721
2018-09-10T11:07:22.919Z,97717
2018-09-10T11:08:39.093Z,97720
2018-09-10T11:09:55.038Z,97718
2018-09-10T11:11:28.905Z,97718
2018-09-10T11:12:44.944Z,97718
2018-09-10T11:14:01.025Z,97722
2018-09-10T11:15:17.116Z,97715
2018-09-10T11:16:33.146Z,97712
2018-09-10T11:17:49.096Z,97714
2018-09-10T11:19:23.012Z,97714
2018-09-10T11:20:39.015Z,97715
2018-09-10T11:21:55.098Z,97713
2018-09-10T11:23:11.170Z,97711
2018-09-10T11:24:27.108Z,97709
2018-09-10T11:25:44.073Z,97705
2018-09-10T11:27:17.926Z,97707
2018-09-10T11:28:34.107Z,97705
2018-09-10T11:29:50.264Z,97705
2018-09-10T11:31:06.376Z,97705
2018-09-10T11:32:40.225Z,97707
2018-09-10T11:33:56.317Z,97705
2018-09-10T11:35:12.479Z,97706
2018-09-10T11:36:28.425Z,97709
2018-09-10T11:37:44.341Z,97708
2018-09-10T11:39:00.312Z,97709
2018-09-10T11:40:16.277Z,97707
2018-09-10T11:41:50.166Z,97709
2018-09-10T11:43:06.136Z,97706
2018-09-10T11:44:22.113Z,97709
2018-09-10T11:45:38.158Z,97709
2018-09-10T11:46:54.303Z,97705
2018-09-10T11:48:28.181Z,97709
2018-09-10T11:49:44.174Z,97706
2018-09-10T11:51:00.130Z,97703
2018-09-10T11:52:16.305Z,97708
2018-09-10T11:53:32.379Z,97711
2018-09-10T11:54:48.570Z,97709
2018-09-10T11:56:04.616Z,97710
2018-09-10T11:57:20.568Z,97712
2018-09-10T11:58:36.538Z,97717
2018-09-10T11:59:52.620Z,97713
2018-09-10T12:01:08.775Z,97709
2018-09-10T12:02:24.840Z,97706
2018-09-10T12:03:40.858Z,97703
2018-09-10T12:04:56.901Z,97706
2018-09-10T12:06:13.140Z,97706
2018-09-10T12:11:59.704Z,97705
2018-09-10T12:13:15.828Z,97706
2018-09-10T12:14:50.676Z,97707
2018-09-10T12:16:06.835Z,97706
2018-09-10T12:17:22.765Z,97708
2018-09-10T12:18:38.707Z,97702
2018-09-10T12:21:17.769Z,97707
2018-09-10T12:22:33.719Z,97703
2018-09-10T12:23:49.701Z,97703
2018-09-10T12:37:33.926Z,97698
2018-09-10T12:38:50.018Z,97683
2018-09-10T12:40:05.991Z,97681
2018-09-10T12:41:22.024Z,97682
2018-09-10T12:42:37.968Z,97685
2018-09-10T12:44:11.928Z,97681
2018-09-10T12:45:27.910Z,97674
2018-09-10T12:46:43.951Z,97674
2018-09-10T12:48:00.104Z,97679
2018-09-10T12:49:16.171Z,97676
2018-09-10T12:50:32.249Z,97679
2018-09-10T12:52:06.302Z,97683
2018-09-10T12:53:41.263Z,97680
2018-09-10T12:54:57.759Z,97678
2018-09-10T12:57:47.779Z,97677
2018-09-10T12:59:03.822Z,97679
2018-09-10T13:00:19.844Z,97678
2018-09-10T13:01:36.052Z,97678
2018-09-10T13:02:52.038Z,97681
2018-09-10T13:04:08.030Z,97679
2018-09-10T13:05:24.054Z,97676
2018-09-10T13:06:59.194Z,97674
2018-09-10T13:08:16.372Z,97671
2018-09-10T13:09:32.377Z,97674
2018-09-10T13:10:48.338Z,97668
2018-09-10T13:12:04.438Z,97666
2018-09-10T13:13:38.315Z,97665
2018-09-10T13:14:54.390Z,97661
2018-09-10T13:16:10.449Z,97658
2018-09-10T13:17:26.421Z,97657
2018-09-10T13:19:00.420Z,97659
2018-09-10T13:20:16.467Z,97656
2018-09-10T13:21:32.484Z,97655
2018-09-10T13:22:48.640Z,97654
2018-09-10T13:24:04.675Z,97655
2018-09-10T13:25:20.729Z,97658
2018-09-10T13:26:36.676Z,97656
2018-09-10T13:27:52.822Z,97657
2018-09-10T13:29:27.374Z,97653
2018-09-10T13:30:43.856Z,97654
2018-09-10T13:32:17.912Z,97643
2018-09-10T13:33:34.338Z,97649
2018-09-10T13:34:50.292Z,97644
2018-09-10T13:36:06.320Z,97644
2018-09-10T13:37:22.665Z,97644
2018-09-10T13:38:38.766Z,97643
2018-09-10T13:39:54.871Z,97635
2018-09-10T13:41:28.808Z,97634
2018-09-10T13:42:44.912Z,97633
2018-09-10T13:44:00.856Z,97636
2018-09-10T13:45:16.985Z,97635
2018-09-10T13:46:32.994Z,97634
2018-09-10T13:49:23.994Z,97637
2018-09-10T13:50:40.065Z,97631
2018-09-10T13:51:56.233Z,97632
2018-09-10T13:53:12.237Z,97631
2018-09-10T13:54:28.172Z,97634
2018-09-10T13:55:44.181Z,97632
2018-09-10T13:57:00.093Z,97627
2018-09-10T13:58:16.033Z,97629
2018-09-10T13:59:31.988Z,97630
2018-09-10T14:00:47.929Z,97626
2018-09-10T14:02:22.765Z,97621
2018-09-10T14:03:38.822Z,97621
2018-09-10T14:04:54.890Z,97616
2018-09-10T14:06:10.803Z,97610
2018-09-10T14:07:44.682Z,97620
2018-09-10T14:09:00.790Z,97614
2018-09-10T14:10:34.735Z,97616
2018-09-10T14:13:24.716Z,97616
2018-09-10T14:14:40.669Z,97612
2018-09-10T14:17:48.561Z,97609
2018-09-10T14:19:04.695Z,97604
2018-09-10T14:20:20.805Z,97607
2018-09-10T14:21:36.844Z,97604
2018-09-10T14:22:52.835Z,97604
2018-09-10T14:24:08.808Z,97601
2018-09-10T14:25:24.947Z,97601
2018-09-10T14:26:40.996Z,97600
2018-09-10T14:27:57.145Z,97601
2018-09-10T14:29:13.150Z,97598
2018-09-10T14:30:29.174Z,97602
2018-09-10T14:31:45.193Z,97598
2018-09-10T14:33:01.174Z,97597
2018-09-10T14:34:35.205Z,97601
2018-09-10T14:35:51.152Z,97606
2018-09-10T14:37:07.104Z,97602
2018-09-10T14:38:58.905Z,97606
2018-09-10T14:40:14.920Z,97605
2018-09-10T14:41:30.869Z,97606
2018-09-10T14:42:46.899Z,97606
2018-09-10T14:44:03.043Z,97612
2018-09-10T14:45:19.109Z,97613
2018-09-10T14:46:54.160Z,97630
2018-09-10T14:48:10.191Z,97623
2018-09-10T14:49:26.313Z,97625
2018-09-10T14:50:42.438Z,97633
2018-09-10T14:51:58.398Z,97630
2018-09-10T14:53:14.432Z,97625
2018-09-10T14:54:30.521Z,97622
2018-09-10T14:55:46.541Z,97626
2018-09-10T14:58:36.319Z,97631
2018-09-10T14:59:52.339Z,97624
2018-09-10T15:01:08.312Z,97611
2018-09-10T15:02:24.307Z,97612
2018-09-10T15:03:40.418Z,97614
2018-09-10T15:04:56.413Z,97614
2018-09-10T15:06:12.587Z,97620
2018-09-10T15:07:28.720Z,97622
2018-09-10T15:08:44.736Z,97622
2018-09-10T15:10:00.709Z,97630
2018-09-10T15:11:16.887Z,97629
2018-09-10T15:14:06.723Z,97636
2018-09-10T15:15:22.742Z,97626
2018-09-10T15:16:38.868Z,97613
2018-09-10T15:18:12.818Z,97613
2018-09-10T15:19:28.723Z,97607
2018-09-10T15:22:18.510Z,97596
2018-09-10T15:23:34.511Z,97592
2018-09-10T15:24:50.591Z,97596
2018-09-10T15:26:06.664Z,97593
2018-09-10T15:27:22.705Z,97593
2018-09-10T15:28:38.680Z,97590
2018-09-10T15:30:12.562Z,97587
2018-09-10T15:31:46.565Z,97588
2018-09-10T15:33:02.552Z,97592
2018-09-10T15:34:18.687Z,97583
2018-09-10T15:35:34.626Z,97582
2018-09-10T15:37:08.537Z,97584
2018-09-10T15:38:25.530Z,97583
2018-09-10T15:39:41.601Z,97584
2018-09-10T15:40:57.561Z,97582
2018-09-10T15:42:31.580Z,97582
2018-09-10T15:43:47.504Z,97577
2018-09-10T15:45:03.568Z,97575
2018-09-10T15:46:19.579Z,97573
2018-09-10T15:47:35.579Z,97573
2018-09-10T15:48:51.683Z,97576
2018-09-10T15:51:41.572Z,97576
2018-09-10T15:52:57.734Z,97575
2018-09-10T15:54:13.762Z,97576
2018-09-10T15:55:29.957Z,97574
2018-09-10T15:56:46.013Z,97577
2018-09-10T15:58:02.178Z,97575
2018-09-10T15:59:37.189Z,97580
2018-09-10T16:00:53.160Z,97574
2018-09-10T16:02:27.191Z,97575
2018-09-10T16:03:43.216Z,97574
2018-09-10T16:04:59.367Z,97574
2018-09-10T16:06:15.398Z,97579
2018-09-10T16:07:31.466Z,97575
2018-09-10T16:08:47.576Z,97577
2018-09-10T16:10:03.729Z,97572
2018-09-10T16:11:19.679Z,97572
2018-09-10T16:14:17.358Z,97571
2018-09-10T16:15:51.386Z,97566
2018-09-10T16:17:07.395Z,97569
2018-09-10T16:18:41.339Z,97565
2018-09-10T16:22:20.058Z,97563
2018-09-10T16:23:36.129Z,97565
2018-09-10T16:24:52.347Z,97566
2018-09-10T16:26:27.265Z,97566
2018-09-10T16:27:43.300Z,97563
2018-09-10T16:28:59.424Z,97564
2018-09-10T16:30:15.542Z,97563
2018-09-10T16:31:31.538Z,97565
2018-09-10T16:34:28.342Z,97560
2018-09-10T16:35:44.516Z,97570
2018-09-10T16:37:00.722Z,97573
2018-09-10T16:38:16.720Z,97579
2018-09-10T16:42:44.201Z,97577
2018-09-10T16:44:00.187Z,97576
2018-09-10T16:45:16.301Z,97579
2018-09-10T16:46:32.388Z,97577
2018-09-10T16:47:48.415Z,97580
2018-09-10T16:49:22.418Z,97582
2018-09-10T16:50:38.522Z,97586
2018-09-10T16:51:54.628Z,97586
2018-09-10T16:53:28.763Z,97583
2018-09-10T16:54:45.222Z,97584
2018-09-10T16:56:01.245Z,97578
2018-09-10T16:57:17.279Z,97580
2018-09-10T16:59:09.169Z,97576
2018-09-10T17:00:25.186Z,97579
2018-09-10T17:01:41.316Z,97578
2018-09-10T17:02:57.554Z,97582
2018-09-10T17:04:13.599Z,97581
2018-09-10T17:05:29.587Z,97583
2018-09-10T17:06:45.650Z,97584
2018-09-10T17:08:01.737Z,97584
2018-09-10T17:09:36.749Z,97585
2018-09-10T17:10:52.887Z,97583
2018-09-10T17:12:09.015Z,97586
2018-09-10T17:13:25.201Z,97589
2018-09-10T17:14:41.355Z,97588
2018-09-10T17:15:57.425Z,97590
2018-09-10T17:17:13.472Z,97588
2018-09-10T17:18:29.452Z,97592
2018-09-10T17:19:45.517Z,97588
2018-09-10T17:21:19.455Z,97589
2018-09-10T17:22:35.723Z,97587
2018-09-10T17:25:25.603Z,97592
2018-09-10T17:26:41.613Z,97592
2018-09-10T17:27:57.742Z,97592
2018-09-10T17:29:31.744Z,97593
2018-09-10T17:30:47.822Z,97597
2018-09-10T17:32:03.862Z,97596
2018-09-10T17:33:19.887Z,97596
2018-09-10T17:34:35.909Z,97604
2018-09-10T17:35:51.979Z,97604
2018-09-10T17:37:08.124Z,97605
2018-09-10T17:38:24.320Z,97602
2018-09-10T17:39:40.320Z,97600
2018-09-10T17:40:56.280Z,97599
2018-09-10T17:42:12.456Z,97601
2018-09-10T17:43:28.656Z,97602
2018-09-10T17:45:03.583Z,97604
2018-09-10T17:48:00.378Z,97607
2018-09-10T17:49:16.492Z,97614
2018-09-10T17:50:32.600Z,97617
2018-09-10T17:51:48.820Z,97619
2018-09-10T17:53:04.994Z,97623
2018-09-10T17:54:20.966Z,97627
2018-09-10T18:16:23.876Z,97629
2018-09-10T18:17:40.013Z,97643
2018-09-10T18:18:56.149Z,97647
2018-09-10T18:20:12.137Z,97648
2018-09-10T18:21:47.032Z,97650
2018-09-10T18:23:03.010Z,97654
2018-09-10T18:24:18.978Z,97657
2018-09-10T18:25:35.156Z,97656
2018-09-10T18:26:51.225Z,97657
2018-09-10T18:28:25.097Z,97658
2018-09-10T18:29:59.139Z,97656
2018-09-10T18:31:15.223Z,97657
2018-09-10T18:32:31.285Z,97659
2018-09-10T18:33:47.375Z,97663
2018-09-10T18:35:03.515Z,97664
2018-09-10T18:36:19.557Z,97664
2018-09-10T18:37:35.559Z,97667
2018-09-10T18:38:51.608Z,97668
2018-09-10T18:40:07.623Z,97668
2018-09-10T18:41:23.808Z,97669
2018-09-10T18:42:39.790Z,97673
2018-09-10T18:43:55.936Z,97673
2018-09-10T18:45:29.830Z,97674
2018-09-10T18:46:46.046Z,97680
2018-09-10T18:48:02.164Z,97679
2018-09-10T18:49:18.218Z,97681
2018-09-10T18:50:34.427Z,97683
2018-09-10T18:55:17.360Z,97681
2018-09-10T18:56:51.398Z,97680
2018-09-10T18:58:07.513Z,97681